createdAt,value
2019-01-23T00:01:45.382Z,23.40
2019-01-23T00:04:14.020Z,29.45
2019-01-23T00:06:43.061Z,24.80
2019-01-23T00:09:12.055Z,24.20
2019-01-23T00:11:40.692Z,23.22
2019-01-23T00:14:09.732Z,27.80
2019-01-23T00:16:38.731Z,28.57
2019-01-23T00:19:07.728Z,29.02
2019-01-23T00:21:36.945Z,26.15
2019-01-23T00:24:06.122Z,23.85
2019-01-23T00:26:34.780Z,26.15
2019-01-23T00:29:04.109Z,27.98
2019-01-23T00:31:33.097Z,24.52
2019-01-23T00:34:02.092Z,22.90
2019-01-23T00:36:31.085Z,25.15
2019-01-23T00:39:00.077Z,24.98
2019-01-23T00:41:28.971Z,27.30
2019-01-23T00:43:57.962Z,25.68
2019-01-23T00:46:26.774Z,27.55
2019-01-23T00:48:55.402Z,26.25
2019-01-23T00:51:24.741Z,27.32
2019-01-23T00:53:54.454Z,27.58
2019-01-23T00:56:23.444Z,27.02
2019-01-23T00:58:52.164Z,28.77
2019-01-23T01:01:20.883Z,28.30
2019-01-23T01:03:49.821Z,28.95
2019-01-23T01:06:18.918Z,28.30
2019-01-23T01:08:47.897Z,28.87
2019-01-23T01:11:16.797Z,28.25
2019-01-23T01:13:45.852Z,27.05
2019-01-23T01:16:14.539Z,27.75
2019-01-23T01:18:43.239Z,26.10
2019-01-23T01:21:11.997Z,26.02
2019-01-23T01:23:40.701Z,25.02
2019-01-23T01:26:09.632Z,25.40
2019-01-23T01:28:38.300Z,27.77
2019-01-23T01:31:06.962Z,26.87
2019-01-23T01:33:35.902Z,25.30
2019-01-23T01:36:05.404Z,27.13
2019-01-23T01:38:34.044Z,25.32
2019-01-23T01:41:02.986Z,28.17
2019-01-23T01:43:31.649Z,24.02
2019-01-23T01:46:00.285Z,25.60
2019-01-23T01:48:29.235Z,28.25
2019-01-23T01:50:57.910Z,24.92
2019-01-23T01:53:26.538Z,26.95
2019-01-23T01:55:55.167Z,25.27
2019-01-23T01:58:24.086Z,24.50
2019-01-23T02:00:53.186Z,26.93
2019-01-23T02:03:21.815Z,25.68
2019-01-23T02:05:50.866Z,23.92
2019-01-23T02:08:19.511Z,26.15
2019-01-23T02:10:48.441Z,25.08
2019-01-23T02:13:17.171Z,29.12
2019-01-23T02:15:45.798Z,25.48
2019-01-23T02:18:14.703Z,26.02
2019-01-23T02:20:43.344Z,24.67
2019-01-23T02:23:12.440Z,24.92
2019-01-23T02:25:41.094Z,23.60
2019-01-23T02:28:10.065Z,27.62
2019-01-23T02:30:38.955Z,25.68
2019-01-23T02:33:07.603Z,28.62
2019-01-23T02:35:36.305Z,25.82
2019-01-23T02:38:05.321Z,25.12
2019-01-23T02:40:34.624Z,25.57
2019-01-23T02:43:03.511Z,24.00
2019-01-23T02:45:32.405Z,25.00
2019-01-23T02:48:01.398Z,23.15
2019-01-23T02:50:30.010Z,21.77
2019-01-23T02:52:58.652Z,28.50
2019-01-23T02:55:27.381Z,22.07
2019-01-23T02:57:56.035Z,26.20
2019-01-23T03:00:25.447Z,28.30
2019-01-23T03:02:54.845Z,24.55
2019-01-23T03:05:23.488Z,27.67
2019-01-23T03:07:52.138Z,27.45
2019-01-23T03:10:22.303Z,28.73
2019-01-23T03:12:51.337Z,28.10
2019-01-23T03:15:20.727Z,27.65
2019-01-23T03:17:49.639Z,26.10
2019-01-23T03:20:19.936Z,25.55
2019-01-23T03:22:49.052Z,29.18
2019-01-23T03:25:18.452Z,29.65
2019-01-23T03:27:47.965Z,33.00
2019-01-23T03:30:25.711Z,29.00
2019-01-23T03:32:54.434Z,29.67
2019-01-23T03:35:23.439Z,30.95
2019-01-23T03:37:52.535Z,30.65
2019-01-23T03:40:22.316Z,34.50
2019-01-23T03:42:51.531Z,31.33
2019-01-23T03:45:20.650Z,29.32
2019-01-23T03:47:49.944Z,35.00
2019-01-23T03:50:20.066Z,33.08
2019-01-23T03:52:48.809Z,36.77
2019-01-23T03:55:18.578Z,30.72
2019-01-23T03:57:47.660Z,31.93
2019-01-23T04:00:21.249Z,36.42
2019-01-23T04:02:51.290Z,38.67
2019-01-23T04:05:20.263Z,36.55
2019-01-23T04:07:48.983Z,35.60
2019-01-23T04:10:17.759Z,34.20
2019-01-23T04:12:47.152Z,33.45
2019-01-23T04:15:16.223Z,38.23
2019-01-23T04:17:44.919Z,32.38
2019-01-23T04:20:15.660Z,37.78
2019-01-23T04:22:44.771Z,37.73
2019-01-23T04:25:13.969Z,31.65
2019-01-23T04:27:43.279Z,37.55
2019-01-23T04:30:20.039Z,35.92
2019-01-23T04:32:49.051Z,33.67
2019-01-23T04:35:18.130Z,39.60
2019-01-23T04:37:47.252Z,34.15
2019-01-23T04:40:16.533Z,36.38
2019-01-23T04:42:45.327Z,31.55
2019-01-23T04:45:15.028Z,38.15
2019-01-23T04:47:44.122Z,32.98
2019-01-23T04:50:14.458Z,37.03
2019-01-23T04:53:01.149Z,34.88
2019-01-23T04:55:30.294Z,35.92
2019-01-23T04:57:59.545Z,37.65
2019-01-23T05:00:29.575Z,36.50
2019-01-23T05:02:58.480Z,34.00
2019-01-23T05:05:27.121Z,36.50
2019-01-23T05:07:56.604Z,37.20
2019-01-23T05:10:25.251Z,42.38
2019-01-23T05:12:54.243Z,36.93
2019-01-23T05:15:22.963Z,32.05
2019-01-23T05:17:52.220Z,39.70
2019-01-23T05:20:21.245Z,41.88
2019-01-23T05:22:50.213Z,36.90
2019-01-23T05:25:18.948Z,37.55
2019-01-23T05:27:47.606Z,36.15
2019-01-23T05:30:19.019Z,42.15
2019-01-23T05:32:47.661Z,38.15
2019-01-23T05:35:16.303Z,39.25
2019-01-23T05:37:44.938Z,43.23
2019-01-23T05:40:15.107Z,35.70
2019-01-23T05:42:43.780Z,34.75
2019-01-23T05:45:12.618Z,42.00
2019-01-23T05:47:41.648Z,39.55
2019-01-23T05:50:13.974Z,33.83
2019-01-23T05:52:43.000Z,35.20
2019-01-23T05:55:12.814Z,34.50
2019-01-23T05:57:41.857Z,29.80
2019-01-23T06:00:13.925Z,35.00
2019-01-23T06:02:42.595Z,31.27
2019-01-23T06:05:12.125Z,32.75
2019-01-23T06:07:41.105Z,34.98
2019-01-23T06:10:09.836Z,36.75
2019-01-23T06:12:38.505Z,35.38
2019-01-23T06:15:08.394Z,30.15
2019-01-23T06:17:37.305Z,33.40
2019-01-23T06:20:07.991Z,35.80
2019-01-23T06:22:36.643Z,36.90
2019-01-23T06:25:05.821Z,37.67
2019-01-23T06:27:35.115Z,35.15
2019-01-23T06:30:10.192Z,34.23
2019-01-23T06:32:35.966Z,36.25
2019-01-23T06:35:05.383Z,37.88
2019-01-23T06:37:34.364Z,32.73
2019-01-23T06:40:03.560Z,32.75
2019-01-23T06:42:32.215Z,27.52
2019-01-23T06:45:01.141Z,36.30
2019-01-23T06:47:30.130Z,37.60
2019-01-23T06:49:59.197Z,34.43
2019-01-23T06:52:27.838Z,25.30
2019-01-23T06:54:57.008Z,32.85
2019-01-23T06:57:26.001Z,32.50
2019-01-23T06:59:54.678Z,36.33
2019-01-23T07:02:23.336Z,39.50
2019-01-23T07:04:52.264Z,36.35
2019-01-23T07:07:21.153Z,39.23
2019-01-23T07:09:49.805Z,36.77
2019-01-23T07:12:18.846Z,37.73
2019-01-23T07:14:47.829Z,40.10
2019-01-23T07:17:16.467Z,39.25
2019-01-23T07:19:45.413Z,35.73
2019-01-23T07:22:14.047Z,42.03
2019-01-23T07:24:43.008Z,42.43
2019-01-23T07:27:11.984Z,39.10
2019-01-23T07:29:41.300Z,42.93
2019-01-23T07:32:09.925Z,37.65
2019-01-23T07:34:38.859Z,39.58
2019-01-23T07:37:07.859Z,43.25
2019-01-23T07:39:36.743Z,38.35
2019-01-23T07:42:05.734Z,40.63
2019-01-23T07:44:34.381Z,38.75
2019-01-23T07:47:03.022Z,41.37
2019-01-23T07:49:31.674Z,42.20
2019-01-23T07:52:00.310Z,40.33
2019-01-23T07:54:28.937Z,45.80
2019-01-23T07:56:57.602Z,43.33
2019-01-23T07:59:26.646Z,47.98
2019-01-23T08:01:55.532Z,40.58
2019-01-23T08:04:24.172Z,44.03
2019-01-23T08:06:52.792Z,39.80
2019-01-23T08:09:21.438Z,35.48
2019-01-23T08:11:50.171Z,39.67
2019-01-23T08:14:18.897Z,38.30
2019-01-23T08:16:47.607Z,41.77
2019-01-23T08:19:16.266Z,41.30
2019-01-23T08:21:45.333Z,39.65
2019-01-23T08:24:13.994Z,42.15
2019-01-23T08:26:42.674Z,40.73
2019-01-23T08:29:11.432Z,41.98
2019-01-23T08:31:40.123Z,39.73
2019-01-23T08:34:09.074Z,40.60
2019-01-23T08:36:38.379Z,38.45
2019-01-23T08:39:08.821Z,38.55
2019-01-23T08:41:37.803Z,39.85
2019-01-23T08:44:06.898Z,41.23
2019-01-23T08:46:35.558Z,41.10
2019-01-23T08:49:05.040Z,35.70
2019-01-23T08:51:33.695Z,34.03
2019-01-23T08:54:02.774Z,35.35
2019-01-23T08:56:31.498Z,40.45
2019-01-23T08:59:00.427Z,35.08
2019-01-23T09:01:29.449Z,33.90
2019-01-23T09:03:58.436Z,39.08
2019-01-23T09:06:27.326Z,38.35
2019-01-23T09:08:55.960Z,39.13
2019-01-23T09:11:24.719Z,35.55
2019-01-23T09:13:54.016Z,34.20
2019-01-23T09:16:22.657Z,35.20
2019-01-23T09:18:51.303Z,31.12
2019-01-23T09:21:20.303Z,35.52
2019-01-23T09:23:49.260Z,38.88
2019-01-23T09:26:18.249Z,39.25
2019-01-23T09:28:46.930Z,33.55
2019-01-23T09:31:44.399Z,36.90
2019-01-23T09:34:54.603Z,36.85
2019-01-23T09:38:08.330Z,36.23
2019-01-23T09:40:46.521Z,36.28
2019-01-23T09:44:00.737Z,39.27
2019-01-23T09:47:13.638Z,37.38
2019-01-23T09:50:07.159Z,32.53
2019-01-23T09:52:49.057Z,35.23
2019-01-23T09:55:17.713Z,40.23
2019-01-23T09:57:52.867Z,39.75
2019-01-23T10:00:24.247Z,37.35
2019-01-23T10:02:52.976Z,36.85
2019-01-23T10:05:21.627Z,37.83
2019-01-23T10:07:50.697Z,38.70
2019-01-23T10:10:19.689Z,39.23
2019-01-23T10:12:48.853Z,35.95
2019-01-23T10:15:21.873Z,41.25
2019-01-23T10:17:50.583Z,36.65
2019-01-23T10:20:19.237Z,36.48
2019-01-23T10:22:47.866Z,39.73
2019-01-23T10:25:16.912Z,37.38
2019-01-23T10:27:46.143Z,40.80
2019-01-23T10:30:15.238Z,38.02
2019-01-23T10:32:44.215Z,37.00
2019-01-23T10:35:13.803Z,39.50
2019-01-23T10:37:42.711Z,39.73
2019-01-23T10:40:13.948Z,39.83
2019-01-23T10:42:42.954Z,38.73
2019-01-23T10:45:12.457Z,40.17
2019-01-23T10:47:41.273Z,39.70
2019-01-23T10:50:11.500Z,39.38
2019-01-23T10:52:40.773Z,39.78
2019-01-23T10:55:09.764Z,41.30
2019-01-23T10:57:38.554Z,38.17
2019-01-23T11:00:11.029Z,43.48
2019-01-23T11:02:40.130Z,38.83
2019-01-23T11:05:10.691Z,45.35
2019-01-23T11:07:39.398Z,45.10
2019-01-23T11:10:11.244Z,43.48
2019-01-23T11:12:40.297Z,43.45
2019-01-23T11:15:09.080Z,41.53
2019-01-23T11:17:37.772Z,43.58
2019-01-23T11:20:08.912Z,44.33
2019-01-23T11:22:37.560Z,41.85
2019-01-23T11:25:07.191Z,40.25
2019-01-23T11:27:35.929Z,44.67
2019-01-23T11:30:08.276Z,41.33
2019-01-23T11:32:37.266Z,41.30
2019-01-23T11:35:07.404Z,44.08
2019-01-23T11:37:36.134Z,42.10
2019-01-23T11:40:08.076Z,41.63
2019-01-23T11:42:37.029Z,41.60
2019-01-23T11:45:07.455Z,42.25
2019-01-23T11:47:36.450Z,42.62
2019-01-23T11:50:06.776Z,40.75
2019-01-23T11:52:35.484Z,39.70
2019-01-23T11:55:04.980Z,43.70
2019-01-23T11:57:33.960Z,45.60
2019-01-23T12:00:02.700Z,42.25
2019-01-23T12:02:32.840Z,43.90
2019-01-23T12:05:01.768Z,41.83
2019-01-23T12:07:30.651Z,47.48
2019-01-23T12:09:59.653Z,44.67
2019-01-23T12:12:28.370Z,42.55
2019-01-23T12:14:57.020Z,44.85
2019-01-23T12:17:26.028Z,43.95
2019-01-23T12:19:55.006Z,43.78
2019-01-23T12:22:24.102Z,42.33
2019-01-23T12:24:53.406Z,45.15
2019-01-23T12:27:22.057Z,43.87
2019-01-23T12:29:50.809Z,44.18
2019-01-23T12:32:19.774Z,44.67
2019-01-23T12:34:48.427Z,43.05
2019-01-23T12:37:17.059Z,42.60
2019-01-23T12:39:46.048Z,44.90
2019-01-23T12:42:14.755Z,45.83
2019-01-23T12:44:43.715Z,41.95
2019-01-23T12:47:12.632Z,40.52
2019-01-23T12:49:41.507Z,44.87
2019-01-23T12:52:10.489Z,44.77
2019-01-23T12:54:39.382Z,44.33
2019-01-23T12:57:08.054Z,41.80
2019-01-23T12:59:36.960Z,47.10
2019-01-23T13:02:09.695Z,41.90
2019-01-23T13:04:36.435Z,44.53
2019-01-23T13:07:05.150Z,44.77
2019-01-23T13:09:34.074Z,44.55
2019-01-23T13:12:03.057Z,43.70
2019-01-23T13:14:32.255Z,43.80
2019-01-23T13:17:01.253Z,43.50
2019-01-23T13:19:29.880Z,43.40
2019-01-23T13:21:58.850Z,42.33
2019-01-23T13:24:27.462Z,42.53
2019-01-23T13:26:56.409Z,43.23
2019-01-23T13:29:25.041Z,42.48
2019-01-23T13:31:54.093Z,44.50
2019-01-23T13:34:22.730Z,45.67
2019-01-23T13:36:51.439Z,43.13
2019-01-23T13:39:20.659Z,46.70
2019-01-23T13:41:49.688Z,46.75
2019-01-23T13:44:18.745Z,44.48
2019-01-23T13:46:47.407Z,42.90
2019-01-23T13:49:16.323Z,43.95
2019-01-23T13:51:44.986Z,45.90
2019-01-23T13:54:13.635Z,45.20
2019-01-23T13:56:42.589Z,45.43
2019-01-23T13:59:11.512Z,47.58
2019-01-23T14:01:40.186Z,46.25
2019-01-23T14:04:09.162Z,42.85
2019-01-23T14:06:38.046Z,46.95
2019-01-23T14:09:07.895Z,49.38
2019-01-23T14:11:36.964Z,45.80
2019-01-23T14:14:06.353Z,46.13
2019-01-23T14:16:35.362Z,44.18
2019-01-23T14:19:04.249Z,46.13
2019-01-23T14:21:33.242Z,43.02
2019-01-23T14:24:02.276Z,45.43
2019-01-23T14:26:31.233Z,44.13
2019-01-23T14:28:59.865Z,42.50
2019-01-23T14:31:28.593Z,43.40
2019-01-23T14:33:57.638Z,44.03
2019-01-23T14:36:26.788Z,42.93
2019-01-23T14:38:55.457Z,44.42
2019-01-23T14:41:24.476Z,43.68
2019-01-23T14:43:53.203Z,45.83
2019-01-23T14:46:21.849Z,43.15
2019-01-23T14:48:50.470Z,43.90
2019-01-23T14:51:19.113Z,45.23
2019-01-23T14:53:48.115Z,43.42
2019-01-23T14:56:16.823Z,44.48
2019-01-23T14:58:45.534Z,42.53
2019-01-23T15:01:14.794Z,43.60
2019-01-23T15:03:43.990Z,42.70
2019-01-23T15:06:12.880Z,43.00
2019-01-23T15:08:41.875Z,42.67
2019-01-23T15:11:10.870Z,43.95
2019-01-23T15:13:39.517Z,46.10
2019-01-23T15:16:08.450Z,44.63
2019-01-23T15:18:37.086Z,44.15
2019-01-23T15:21:05.790Z,41.48
2019-01-23T15:23:34.711Z,41.45
2019-01-23T15:26:03.361Z,43.48
2019-01-23T15:28:32.098Z,44.93
2019-01-23T15:31:00.787Z,44.05
2019-01-23T15:33:29.428Z,45.35
2019-01-23T15:35:58.447Z,43.05
2019-01-23T15:38:27.339Z,45.38
2019-01-23T15:40:55.950Z,44.30
2019-01-23T15:43:24.563Z,44.75
2019-01-23T15:45:53.539Z,42.95
2019-01-23T15:48:22.160Z,43.65
2019-01-23T15:50:50.796Z,44.45
2019-01-23T15:53:20.442Z,44.63
2019-01-23T15:55:49.383Z,43.33
2019-01-23T15:58:18.020Z,46.13
2019-01-23T16:00:46.660Z,44.63
2019-01-23T16:03:15.384Z,42.08
2019-01-23T16:05:45.254Z,44.60
2019-01-23T16:08:14.144Z,45.55
2019-01-23T16:10:42.817Z,43.17
2019-01-23T16:13:11.488Z,43.42
2019-01-23T16:15:43.175Z,43.17
2019-01-23T16:18:11.803Z,42.67
2019-01-23T16:20:40.748Z,45.38
2019-01-23T16:23:09.364Z,47.23
2019-01-23T16:25:38.324Z,48.17
2019-01-23T16:28:07.434Z,47.33
2019-01-23T16:30:38.219Z,48.05
2019-01-23T16:33:07.256Z,47.03
2019-01-23T16:35:38.743Z,50.20
2019-01-23T16:38:09.009Z,51.25
2019-01-23T16:40:37.787Z,52.08
2019-01-23T16:43:06.819Z,54.13
2019-01-23T16:45:35.550Z,54.10
2019-01-23T16:48:04.354Z,52.30
2019-01-23T16:50:33.381Z,50.15
2019-01-23T16:53:02.338Z,48.55
2019-01-23T16:55:31.394Z,52.62
2019-01-23T16:58:00.303Z,52.43
2019-01-23T17:00:29.025Z,49.65
2019-01-23T17:02:58.503Z,48.55
2019-01-23T17:05:29.515Z,50.67
2019-01-23T17:08:00.104Z,48.28
2019-01-23T17:10:28.868Z,44.42
2019-01-23T17:12:57.907Z,43.52
2019-01-23T17:15:26.716Z,42.38
2019-01-23T17:17:55.520Z,27.95
2019-01-23T17:20:30.564Z,39.63
2019-01-23T17:22:59.626Z,39.48
2019-01-23T17:25:28.607Z,42.25
2019-01-23T17:27:57.602Z,36.85
2019-01-23T17:30:26.805Z,37.80
2019-01-23T17:32:55.427Z,36.40
2019-01-23T17:35:24.485Z,35.92
2019-01-23T17:37:53.129Z,37.25
2019-01-23T17:40:22.266Z,35.60
2019-01-23T17:42:50.909Z,35.35
2019-01-23T17:45:22.710Z,35.80
2019-01-23T17:47:52.012Z,35.05
2019-01-23T17:50:21.618Z,37.38
2019-01-23T17:52:50.814Z,36.38
2019-01-23T17:55:25.154Z,30.50
2019-01-23T17:57:54.054Z,36.45
2019-01-23T18:00:26.077Z,37.42
2019-01-23T18:02:55.406Z,34.15
2019-01-23T18:05:24.596Z,33.80
2019-01-23T18:07:53.238Z,34.30
2019-01-23T18:10:22.683Z,32.93
2019-01-23T18:12:51.314Z,35.00
2019-01-23T18:15:21.887Z,36.53
2019-01-23T18:17:50.889Z,32.50
2019-01-23T18:20:22.234Z,33.83
2019-01-23T18:22:51.348Z,32.48
2019-01-23T18:25:20.253Z,35.55
2019-01-23T18:27:49.331Z,31.23
2019-01-23T18:30:24.262Z,30.50
2019-01-23T18:32:59.652Z,31.10
2019-01-23T18:35:37.749Z,32.40
2019-01-23T18:38:17.056Z,34.85
2019-01-23T18:41:33.047Z,35.38
2019-01-23T18:44:14.646Z,35.25
2019-01-23T18:47:06.255Z,33.98
2019-01-23T18:50:19.180Z,34.63
2019-01-23T18:52:48.177Z,31.62
2019-01-23T18:55:17.973Z,32.23
2019-01-23T18:57:46.984Z,31.73
2019-01-23T19:00:18.435Z,32.90
2019-01-23T19:02:47.073Z,33.48
2019-01-23T19:05:17.670Z,33.10
2019-01-23T19:07:46.639Z,32.15
2019-01-23T19:10:16.043Z,33.78
2019-01-23T19:12:44.762Z,32.60
2019-01-23T19:15:15.126Z,30.60
2019-01-23T19:17:44.162Z,31.55
2019-01-23T19:20:16.055Z,32.63
2019-01-23T19:22:45.104Z,32.38
2019-01-23T19:25:14.518Z,33.20
2019-01-23T19:27:43.370Z,34.03
2019-01-23T19:30:14.675Z,30.35
2019-01-23T19:32:43.396Z,29.65
2019-01-23T19:35:12.204Z,31.57
2019-01-23T19:37:40.923Z,31.27
2019-01-23T19:40:10.861Z,31.00
2019-01-23T19:42:39.508Z,27.35
2019-01-23T19:45:12.499Z,28.65
2019-01-23T19:47:41.768Z,30.37
2019-01-23T19:50:11.859Z,27.50
2019-01-23T19:52:40.914Z,28.50
2019-01-23T19:55:11.547Z,29.10
2019-01-23T19:57:40.181Z,27.42
2019-01-23T20:00:13.395Z,24.80
2019-01-23T20:02:42.431Z,29.23
2019-01-23T20:05:12.824Z,32.08
2019-01-23T20:07:41.454Z,26.27
2019-01-23T20:10:14.448Z,28.57
2019-01-23T20:12:43.030Z,25.80
2019-01-23T20:15:13.664Z,28.10
2019-01-23T20:17:42.732Z,27.98
2019-01-23T20:20:12.414Z,29.07
2019-01-23T20:22:41.112Z,28.57
2019-01-23T20:25:13.092Z,26.82
2019-01-23T20:27:41.981Z,28.90
2019-01-23T20:30:37.463Z,27.90
2019-01-23T20:33:06.376Z,23.75
2019-01-23T20:35:35.383Z,32.60
2019-01-23T20:38:04.790Z,25.57
2019-01-23T20:40:33.415Z,26.02
2019-01-23T20:43:02.087Z,23.65
2019-01-23T20:45:31.363Z,29.07
2019-01-23T20:48:00.092Z,28.20
2019-01-23T20:50:31.216Z,28.80
2019-01-23T20:52:59.921Z,27.22
2019-01-23T20:55:29.015Z,24.50
2019-01-23T20:57:58.273Z,26.80
2019-01-23T21:00:29.419Z,28.07
2019-01-23T21:02:58.716Z,24.05
2019-01-23T21:05:27.456Z,25.72
2019-01-23T21:07:56.809Z,23.15
2019-01-23T21:10:26.415Z,22.02
2019-01-23T21:12:55.037Z,23.52
2019-01-23T21:15:26.242Z,17.75
2019-01-23T21:17:55.247Z,22.60
2019-01-23T21:20:24.232Z,22.37
2019-01-23T21:22:52.886Z,23.62
2019-01-23T21:25:21.809Z,22.85
2019-01-23T21:27:50.433Z,24.60
2019-01-23T21:30:21.818Z,23.07
2019-01-23T21:32:50.448Z,27.45
2019-01-23T21:35:20.340Z,24.65
2019-01-23T21:37:49.211Z,21.77
2019-01-23T21:40:23.054Z,24.10
2019-01-23T21:42:51.803Z,21.48
2019-01-23T21:45:20.743Z,23.22
2019-01-23T21:47:50.855Z,21.55
2019-01-23T21:50:20.963Z,23.67
2019-01-23T21:52:49.962Z,22.52
2019-01-23T21:55:20.440Z,21.37
2019-01-23T21:57:49.157Z,23.12
2019-01-23T22:00:45.306Z,23.25
2019-01-23T22:03:13.914Z,23.30
2019-01-23T22:05:42.880Z,21.27
2019-01-23T22:08:11.522Z,20.92
2019-01-23T22:10:40.559Z,19.57
2019-01-23T22:13:09.454Z,21.12
2019-01-23T22:15:38.454Z,19.20
2019-01-23T22:18:08.630Z,21.55
2019-01-23T22:20:37.272Z,18.40
2019-01-23T22:23:06.043Z,19.40
2019-01-23T22:25:34.932Z,19.02
2019-01-23T22:28:03.929Z,21.93
2019-01-23T22:30:33.436Z,14.43
2019-01-23T22:33:02.567Z,18.77
2019-01-23T22:35:31.627Z,17.10
2019-01-23T22:38:00.269Z,19.02
2019-01-23T22:40:28.923Z,16.65
2019-01-23T22:42:57.889Z,20.48
2019-01-23T22:45:26.783Z,18.95
2019-01-23T22:47:55.427Z,19.07
2019-01-23T22:50:25.972Z,16.67
2019-01-23T22:52:55.092Z,18.23
2019-01-23T22:55:24.394Z,18.02
2019-01-23T22:57:54.105Z,16.27
2019-01-23T23:00:46.579Z,17.70
2019-01-23T23:03:18.000Z,18.00
2019-01-23T23:05:46.690Z,19.35
2019-01-23T23:08:15.783Z,21.42
2019-01-23T23:10:44.451Z,17.02
2019-01-23T23:13:13.452Z,17.32
2019-01-23T23:15:42.555Z,18.65
2019-01-23T23:18:11.557Z,18.37
2019-01-23T23:20:40.446Z,15.23
2019-01-23T23:23:09.163Z,20.95
2019-01-23T23:25:38.414Z,17.70
2019-01-23T23:28:07.423Z,18.82
2019-01-23T23:30:36.724Z,17.95
2019-01-23T23:33:05.717Z,17.95
2019-01-23T23:35:34.709Z,18.32
2019-01-23T23:38:03.811Z,14.07
2019-01-23T23:40:32.522Z,19.85
2019-01-23T23:43:01.154Z,19.52
2019-01-23T23:45:30.074Z,17.62
2019-01-23T23:47:58.783Z,19.27
2019-01-23T23:50:27.453Z,20.15
2019-01-23T23:52:56.062Z,21.42
2019-01-23T23:55:24.703Z,20.62
2019-01-23T23:57:53.718Z,21.00
